createdAt,value
2023-05-10T00:00:37.390Z,30.30
2023-05-10T00:01:37.426Z,30.80
2023-05-10T00:02:37.459Z,30.10
2023-05-10T00:03:37.436Z,34.80
2023-05-10T00:04:37.331Z,34.90
2023-05-10T00:05:37.329Z,35.20
2023-05-10T00:06:37.305Z,30.40
2023-05-10T00:07:37.307Z,33.90
2023-05-10T00:08:37.326Z,36.60
2023-05-10T00:09:37.295Z,40.10
2023-05-10T00:10:37.276Z,35.70
2023-05-10T00:11:37.252Z,36.30
2023-05-10T00:12:37.279Z,33.00
2023-05-10T00:13:37.228Z,32.70
2023-05-10T00:14:37.239Z,33.00
2023-05-10T00:15:37.218Z,34.60
2023-05-10T00:16:37.240Z,35.90
2023-05-10T00:17:37.257Z,35.60
2023-05-10T00:18:37.208Z,37.50
2023-05-10T00:19:37.170Z,36.90
2023-05-10T00:20:37.167Z,35.50
2023-05-10T00:21:37.186Z,34.00
2023-05-10T00:22:37.159Z,34.40
2023-05-10T00:23:37.131Z,35.20
2023-05-10T00:24:37.113Z,35.00
2023-05-10T00:25:37.096Z,34.40
2023-05-10T00:26:37.137Z,34.20
2023-05-10T00:27:37.080Z,35.60
2023-05-10T00:28:37.091Z,35.40
2023-05-10T00:29:37.074Z,38.30
2023-05-10T00:30:37.054Z,39.70
2023-05-10T00:31:37.120Z,37.70
2023-05-10T00:32:37.159Z,35.20
2023-05-10T00:33:37.012Z,33.10
2023-05-10T00:34:37.021Z,32.30
2023-05-10T00:35:37.044Z,31.60
2023-05-10T00:36:37.027Z,31.30
2023-05-10T00:37:37.013Z,33.30
2023-05-10T00:38:36.985Z,35.00
2023-05-10T00:39:36.951Z,35.30
2023-05-10T00:40:36.991Z,33.50
2023-05-10T00:41:36.942Z,31.70
2023-05-10T00:42:36.931Z,31.80
2023-05-10T00:43:36.961Z,32.80
2023-05-10T00:44:36.926Z,33.30
2023-05-10T00:45:36.922Z,34.00
2023-05-10T00:46:37.034Z,37.00
2023-05-10T00:47:36.998Z,37.50
2023-05-10T00:48:36.906Z,39.20
2023-05-10T00:49:36.888Z,38.80
2023-05-10T00:50:36.879Z,39.50
2023-05-10T00:51:36.857Z,40.20
2023-05-10T00:52:36.840Z,39.80
2023-05-10T00:53:36.846Z,39.20
2023-05-10T00:54:36.838Z,40.50
2023-05-10T00:55:36.824Z,43.50
2023-05-10T00:56:36.808Z,42.20
2023-05-10T00:57:36.802Z,44.50
2023-05-10T00:58:36.765Z,44.50
2023-05-10T00:59:36.779Z,43.30
2023-05-10T01:00:36.742Z,43.20
2023-05-10T01:01:36.766Z,39.30
2023-05-10T01:02:36.814Z,40.20
2023-05-10T01:03:36.760Z,41.40
2023-05-10T01:04:36.780Z,43.00
2023-05-10T01:05:36.701Z,44.40
2023-05-10T01:06:36.680Z,45.30
2023-05-10T01:07:36.668Z,46.00
2023-05-10T01:08:36.708Z,47.00
2023-05-10T01:09:36.650Z,48.90
2023-05-10T01:10:36.653Z,48.40
2023-05-10T01:11:36.639Z,46.40
2023-05-10T01:12:36.681Z,46.10
2023-05-10T01:13:36.624Z,48.20
2023-05-10T01:14:36.619Z,48.90
2023-05-10T01:15:36.631Z,48.90
2023-05-10T01:16:36.591Z,49.60
2023-05-10T01:17:36.660Z,48.40
2023-05-10T01:18:36.606Z,47.50
2023-05-10T01:19:36.543Z,46.70
2023-05-10T01:20:36.560Z,47.10
2023-05-10T01:21:36.526Z,47.90
2023-05-10T01:22:36.544Z,47.00
2023-05-10T01:23:36.510Z,44.90
2023-05-10T01:24:36.495Z,44.40
2023-05-10T01:25:36.485Z,42.10
2023-05-10T01:26:36.484Z,43.20
2023-05-10T01:27:36.490Z,42.40
2023-05-10T01:28:36.458Z,46.10
2023-05-10T01:29:36.443Z,46.90
2023-05-10T01:30:36.432Z,47.70
2023-05-10T01:31:36.497Z,43.90
2023-05-10T01:32:36.478Z,46.40
2023-05-10T01:33:36.394Z,46.10
2023-05-10T01:34:36.388Z,42.60
2023-05-10T01:35:36.387Z,44.60
2023-05-10T01:36:36.394Z,47.00
2023-05-10T01:37:36.361Z,47.60
2023-05-10T01:38:36.459Z,47.40
2023-05-10T01:39:36.341Z,47.80
2023-05-10T01:40:36.327Z,48.60
2023-05-10T01:41:36.342Z,46.70
2023-05-10T01:42:36.300Z,47.50
2023-05-10T01:43:36.288Z,48.10
2023-05-10T01:44:36.285Z,47.70
2023-05-10T01:45:36.296Z,46.40
2023-05-10T01:46:36.390Z,49.20
2023-05-10T01:47:36.279Z,53.90
2023-05-10T01:48:36.238Z,54.10
2023-05-10T01:49:36.242Z,51.00
2023-05-10T01:50:36.283Z,53.90
2023-05-10T01:51:36.222Z,50.20
2023-05-10T01:52:36.191Z,46.60
2023-05-10T01:53:36.187Z,44.80
2023-05-10T01:54:36.168Z,42.00
2023-05-10T01:55:36.202Z,49.00
2023-05-10T01:56:36.162Z,48.00
2023-05-10T01:57:36.152Z,48.20
2023-05-10T01:58:36.144Z,49.70
2023-05-10T01:59:36.167Z,52.20
2023-05-10T02:00:36.213Z,50.80
2023-05-10T02:01:36.104Z,51.00
2023-05-10T02:02:36.109Z,50.50
2023-05-10T02:03:36.109Z,48.00
2023-05-10T02:04:36.109Z,46.60
2023-05-10T02:05:36.062Z,43.90
2023-05-10T02:06:36.042Z,44.60
2023-05-10T02:07:36.044Z,44.80
2023-05-10T02:08:36.025Z,44.60
2023-05-10T02:09:36.062Z,44.10
2023-05-10T02:10:36.009Z,45.70
2023-05-10T02:11:36.001Z,45.70
2023-05-10T02:12:35.996Z,45.10
2023-05-10T02:13:36.052Z,41.60
2023-05-10T02:14:35.983Z,46.20
2023-05-10T02:15:35.975Z,46.80
2023-05-10T02:16:36.004Z,47.70
2023-05-10T02:17:35.952Z,44.00
2023-05-10T02:18:35.966Z,44.10
2023-05-10T02:19:35.924Z,49.80
2023-05-10T02:20:35.911Z,51.40
2023-05-10T02:21:35.898Z,51.30
2023-05-10T02:22:35.879Z,50.80
2023-05-10T02:23:35.898Z,59.50
2023-05-10T02:24:35.874Z,57.70
2023-05-10T02:25:35.865Z,59.90
2023-05-10T02:26:35.847Z,61.20
2023-05-10T02:27:35.869Z,56.90
2023-05-10T02:28:35.845Z,57.50
2023-05-10T02:29:35.824Z,57.70
2023-05-10T02:30:35.818Z,58.60
2023-05-10T02:31:35.849Z,62.00
2023-05-10T02:32:35.834Z,63.40
2023-05-10T02:33:35.772Z,61.60
2023-05-10T02:34:35.746Z,63.50
2023-05-10T02:35:35.746Z,63.80
2023-05-10T02:36:35.732Z,63.10
2023-05-10T02:37:35.751Z,63.40
2023-05-10T02:38:35.717Z,62.20
2023-05-10T02:39:35.703Z,60.90
2023-05-10T02:40:35.707Z,62.20
2023-05-10T02:41:35.710Z,52.00
2023-05-10T02:42:35.723Z,51.50
2023-05-10T02:43:35.661Z,53.60
2023-05-10T02:44:35.649Z,47.20
2023-05-10T02:45:35.668Z,46.00
2023-05-10T02:46:35.862Z,43.00
2023-05-10T02:47:35.664Z,39.60
2023-05-10T02:48:35.616Z,35.70
2023-05-10T02:49:35.601Z,22.50
2023-05-10T02:50:35.642Z,21.70
2023-05-10T02:51:35.623Z,20.90
2023-05-10T02:52:35.570Z,19.00
2023-05-10T02:53:35.592Z,19.00
2023-05-10T02:54:35.548Z,18.20
2023-05-10T02:55:35.545Z,15.30
2023-05-10T02:56:35.571Z,13.40
2023-05-10T02:57:35.523Z,13.30
2023-05-10T02:58:35.518Z,13.60
2023-05-10T02:59:35.536Z,13.50
2023-05-10T03:00:35.517Z,13.40
2023-05-10T03:01:35.532Z,10.50
2023-05-10T03:02:35.500Z,11.70
2023-05-10T03:03:35.489Z,10.80
2023-05-10T03:04:35.485Z,10.20
2023-05-10T03:05:35.491Z,9.10
2023-05-10T03:06:35.448Z,9.20
2023-05-10T03:07:35.423Z,9.10
2023-05-10T03:08:35.409Z,8.30
2023-05-10T03:09:35.427Z,8.70
2023-05-10T03:10:35.352Z,8.50
2023-05-10T03:11:35.334Z,8.80
2023-05-10T03:12:35.320Z,8.30
2023-05-10T03:13:35.362Z,8.10
2023-05-10T03:14:35.328Z,7.80
2023-05-10T03:15:35.286Z,8.20
2023-05-10T03:16:35.295Z,8.00
2023-05-10T03:17:35.307Z,7.90
2023-05-10T03:18:35.335Z,8.10
2023-05-10T03:19:35.263Z,7.90
2023-05-10T03:20:35.228Z,8.10
2023-05-10T03:21:35.246Z,8.30
2023-05-10T03:22:35.214Z,8.20
2023-05-10T03:23:35.233Z,8.40
2023-05-10T03:24:35.184Z,8.40
2023-05-10T03:25:35.193Z,8.30
2023-05-10T03:26:35.197Z,9.10
2023-05-10T03:27:35.193Z,8.80
2023-05-10T03:28:35.187Z,8.40
2023-05-10T03:29:35.174Z,8.90
2023-05-10T03:30:35.130Z,8.70
2023-05-10T03:31:35.146Z,9.20
2023-05-10T03:32:35.223Z,9.50
2023-05-10T03:33:35.120Z,9.00
2023-05-10T03:34:35.081Z,10.40
2023-05-10T03:35:35.152Z,10.40
2023-05-10T03:36:35.062Z,10.10
2023-05-10T03:37:35.104Z,11.00
2023-05-10T03:38:35.146Z,11.80
2023-05-10T03:39:35.054Z,12.00
2023-05-10T03:40:35.022Z,11.60
2023-05-10T03:41:35.032Z,12.10
2023-05-10T03:42:35.095Z,13.10
2023-05-10T03:43:34.997Z,14.20
2023-05-10T03:44:34.995Z,14.80
2023-05-10T03:45:35.003Z,14.60
2023-05-10T03:46:35.023Z,15.50
2023-05-10T03:47:34.999Z,15.50
2023-05-10T03:48:35.001Z,15.30
2023-05-10T03:49:34.948Z,16.00
2023-05-10T03:50:34.936Z,16.60
2023-05-10T03:51:34.904Z,17.30
2023-05-10T03:52:34.956Z,18.50
2023-05-10T03:53:34.910Z,18.90
2023-05-10T03:54:34.880Z,20.20
2023-05-10T03:55:34.894Z,21.40
2023-05-10T03:56:34.901Z,20.80
2023-05-10T03:57:34.874Z,22.30
2023-05-10T03:58:34.836Z,23.60
2023-05-10T03:59:34.848Z,22.20
2023-05-10T04:00:34.849Z,22.40
2023-05-10T04:01:34.893Z,23.20
2023-05-10T04:02:34.879Z,22.80
2023-05-10T04:03:34.849Z,23.60
2023-05-10T04:04:34.782Z,24.00
2023-05-10T04:05:34.801Z,23.70
2023-05-10T04:06:34.779Z,24.50
2023-05-10T04:07:34.781Z,24.50
2023-05-10T04:08:34.744Z,25.30
2023-05-10T04:09:34.746Z,25.30
2023-05-10T04:10:34.774Z,24.10
2023-05-10T04:11:34.731Z,24.10
2023-05-10T04:12:34.738Z,24.80
2023-05-10T04:13:34.733Z,24.70
2023-05-10T04:14:34.774Z,25.00
2023-05-10T04:15:34.781Z,24.70
2023-05-10T04:16:49.703Z,24.70
2023-05-10T04:17:37.395Z,25.20
2023-05-10T04:19:49.122Z,24.80
2023-05-10T04:20:48.848Z,24.30
2023-05-10T04:22:38.953Z,26.70
2023-05-10T04:23:39.854Z,27.60
2023-05-10T04:24:39.888Z,27.40
2023-05-10T04:25:47.078Z,27.50
2023-05-10T04:26:39.872Z,28.80
2023-05-10T04:27:39.803Z,27.90
2023-05-10T04:28:39.810Z,28.30
2023-05-10T04:29:39.812Z,29.00
2023-05-10T04:30:39.776Z,30.40
2023-05-10T04:31:39.768Z,31.00
2023-05-10T04:32:39.775Z,30.50
2023-05-10T04:33:47.983Z,30.40
2023-05-10T04:34:39.833Z,30.30
2023-05-10T04:35:39.751Z,30.40
2023-05-10T04:36:39.735Z,31.20
2023-05-10T04:37:39.690Z,32.40
2023-05-10T04:38:39.719Z,32.00
2023-05-10T04:39:42.018Z,32.40
2023-05-10T04:40:39.741Z,31.80
2023-05-10T04:41:39.688Z,30.50
2023-05-10T04:42:40.525Z,29.30
2023-05-10T04:43:39.825Z,30.80
2023-05-10T04:44:39.648Z,31.80
2023-05-10T04:45:39.675Z,30.70
2023-05-10T04:46:40.774Z,31.20
2023-05-10T04:47:39.652Z,31.40
2023-05-10T04:48:40.183Z,31.40
2023-05-10T04:57:25.731Z,23.80
2023-05-10T04:58:26.414Z,22.30
2023-05-10T04:59:27.557Z,20.90
2023-05-10T05:00:26.545Z,18.80
2023-05-10T05:05:17.611Z,12.50
2023-05-10T05:08:40.237Z,10.70
2023-05-10T05:09:41.288Z,9.80
2023-05-10T05:10:41.938Z,9.40
2023-05-10T05:15:11.840Z,9.10
2023-05-10T05:16:12.903Z,9.60
2023-05-10T05:22:00.181Z,8.80
2023-05-10T05:23:01.070Z,9.00
2023-05-10T05:24:00.821Z,8.30
2023-05-10T05:28:53.328Z,7.90
2023-05-10T05:29:49.693Z,7.60
2023-05-10T05:30:50.199Z,7.50
2023-05-10T05:35:41.215Z,7.30
2023-05-10T05:36:42.176Z,7.40
2023-05-10T05:37:42.203Z,7.10
2023-05-10T05:40:45.044Z,6.20
2023-05-10T05:41:43.156Z,6.10
2023-05-10T05:42:43.072Z,7.40
2023-05-10T05:43:43.662Z,7.10
2023-05-10T05:44:42.919Z,6.20
2023-05-10T05:45:44.650Z,6.70
2023-05-10T05:53:31.915Z,6.60
2023-05-10T05:54:32.885Z,6.90
2023-05-10T05:55:32.773Z,7.10
2023-05-10T05:56:32.720Z,7.00
2023-05-10T05:57:32.678Z,7.60
2023-05-10T05:58:32.666Z,7.80
2023-05-10T06:46:36.423Z,11.90
2023-05-10T06:47:38.950Z,12.00
2023-05-10T06:48:37.134Z,10.50
2023-05-10T06:49:37.107Z,11.70
2023-05-10T07:38:00.207Z,9.00
2023-05-10T08:38:18.706Z,16.80
2023-05-10T09:05:08.422Z,18.50
2023-05-10T09:55:15.203Z,21.50
2023-05-10T09:56:15.799Z,23.20
2023-05-10T09:59:25.994Z,23.90
2023-05-10T10:00:26.864Z,24.40
2023-05-10T10:01:26.655Z,23.10
2023-05-10T10:04:01.422Z,24.40
2023-05-10T10:26:22.197Z,18.40
2023-05-10T10:30:13.812Z,21.30
2023-05-10T10:31:14.659Z,19.80
2023-05-10T10:36:54.283Z,19.30
2023-05-10T10:37:52.826Z,18.90
2023-05-10T10:38:52.813Z,17.30
2023-05-10T10:39:52.789Z,16.80
2023-05-10T10:40:52.781Z,18.40
2023-05-10T10:41:52.774Z,16.50
2023-05-10T10:42:52.930Z,17.20
2023-05-10T10:43:52.751Z,16.10
2023-05-10T10:44:52.726Z,15.50
2023-05-10T10:45:52.717Z,15.60
2023-05-10T10:46:52.844Z,16.40
2023-05-10T10:47:52.717Z,16.20
2023-05-10T10:48:52.693Z,15.70
2023-05-10T10:49:52.758Z,15.40
2023-05-10T10:50:52.675Z,15.20
2023-05-10T10:51:52.703Z,14.90
2023-05-10T10:52:52.709Z,15.70
2023-05-10T10:53:52.644Z,16.30
2023-05-10T10:54:52.677Z,15.20
2023-05-10T10:55:52.725Z,14.90
2023-05-10T10:56:52.636Z,13.60
2023-05-10T10:57:52.653Z,13.60
2023-05-10T10:58:52.658Z,13.60
2023-05-10T10:59:52.585Z,12.70
2023-05-10T11:00:52.680Z,12.30
2023-05-10T11:01:52.574Z,12.30
2023-05-10T11:02:52.735Z,12.60
2023-05-10T11:03:52.598Z,11.20
2023-05-10T11:04:52.522Z,11.40
2023-05-10T11:05:52.804Z,10.60
2023-05-10T11:06:52.521Z,10.10
2023-05-10T11:07:52.519Z,9.90
2023-05-10T11:08:52.489Z,9.90
2023-05-10T11:09:52.476Z,10.10
2023-05-10T11:10:52.469Z,9.40
2023-05-10T11:11:52.484Z,10.40
2023-05-10T11:12:52.484Z,10.40
2023-05-10T11:13:52.439Z,10.00
2023-05-10T11:14:52.457Z,9.90
2023-05-10T11:15:52.670Z,9.20
2023-05-10T11:16:52.488Z,9.60
2023-05-10T11:17:52.437Z,8.80
2023-05-10T11:18:52.406Z,9.20
2023-05-10T11:19:52.399Z,8.20
2023-05-10T11:20:52.390Z,8.60
2023-05-10T11:21:52.365Z,8.50
2023-05-10T11:22:52.363Z,8.20
2023-05-10T11:23:52.357Z,7.90
2023-05-10T11:24:52.413Z,7.90
2023-05-10T11:25:52.310Z,8.60
2023-05-10T11:26:52.370Z,8.50
2023-05-10T11:27:52.336Z,9.10
2023-05-10T11:28:52.339Z,8.60
2023-05-10T11:29:52.261Z,8.60
2023-05-10T11:30:52.306Z,8.50
2023-05-10T11:31:52.303Z,9.00
2023-05-10T11:32:52.280Z,8.80
2023-05-10T11:33:52.292Z,9.20
2023-05-10T11:34:52.241Z,9.60
2023-05-10T11:35:52.262Z,9.20
2023-05-10T11:36:52.210Z,9.90
2023-05-10T11:37:52.202Z,9.20
2023-05-10T11:38:52.225Z,9.30
2023-05-10T11:39:52.223Z,8.50
2023-05-10T11:40:52.165Z,8.00
2023-05-10T11:41:52.153Z,7.50
2023-05-10T11:42:52.177Z,6.80
2023-05-10T11:43:52.142Z,7.00
2023-05-10T11:44:52.143Z,7.50
2023-05-10T11:45:52.157Z,7.10
2023-05-10T11:46:52.159Z,7.20
2023-05-10T11:47:52.240Z,6.50
2023-05-10T11:48:52.107Z,7.20
2023-05-10T11:49:52.077Z,6.90
2023-05-10T11:50:52.067Z,6.40
2023-05-10T11:51:52.076Z,5.70
2023-05-10T11:52:52.072Z,6.10
2023-05-10T11:53:52.053Z,5.80
2023-05-10T11:54:52.039Z,6.60
2023-05-10T11:55:52.013Z,6.80
2023-05-10T11:56:52.037Z,7.00
2023-05-10T11:57:52.002Z,8.10
2023-05-10T11:58:52.005Z,7.90
2023-05-10T11:59:51.991Z,8.50
2023-05-10T12:00:51.969Z,8.00
2023-05-10T12:01:51.998Z,8.50
2023-05-10T12:02:52.023Z,8.80
2023-05-10T12:03:52.106Z,8.30
2023-05-10T12:04:52.054Z,8.10
2023-05-10T12:05:51.919Z,8.40
2023-05-10T12:06:51.901Z,7.90
2023-05-10T12:07:51.891Z,8.00
2023-05-10T12:08:51.896Z,7.60
2023-05-10T12:09:51.899Z,8.30
2023-05-10T12:10:51.879Z,8.10
2023-05-10T12:11:51.853Z,7.70
2023-05-10T12:12:51.834Z,7.80
2023-05-10T12:13:51.836Z,7.80
2023-05-10T12:14:51.866Z,7.60
2023-05-10T12:15:51.807Z,7.60
2023-05-10T12:16:51.797Z,7.60
2023-05-10T12:17:51.862Z,8.60
2023-05-10T12:18:51.877Z,7.90
2023-05-10T12:19:51.788Z,7.40
2023-05-10T12:20:51.794Z,7.10
2023-05-10T12:21:51.741Z,7.90
2023-05-10T12:22:51.734Z,7.90
2023-05-10T12:23:51.732Z,7.60
2023-05-10T12:24:51.787Z,7.80
2023-05-10T12:25:51.697Z,7.20
2023-05-10T12:26:51.713Z,7.20
2023-05-10T12:27:51.712Z,7.70
2023-05-10T12:28:51.742Z,8.00
2023-05-10T12:29:51.683Z,8.20
2023-05-10T12:30:51.653Z,7.60
2023-05-10T12:31:51.746Z,7.50
2023-05-10T12:32:51.726Z,8.50
2023-05-10T12:33:51.642Z,9.00
2023-05-10T12:34:51.629Z,8.70
2023-05-10T12:35:51.607Z,8.80
2023-05-10T12:36:51.586Z,9.00
2023-05-10T12:37:51.582Z,8.70
2023-05-10T12:38:51.613Z,8.10
2023-05-10T12:39:51.553Z,7.70
2023-05-10T12:40:51.587Z,7.40
2023-05-10T12:41:51.559Z,6.50
2023-05-10T12:42:51.608Z,7.20
2023-05-10T12:43:51.551Z,7.10
2023-05-10T12:44:51.567Z,7.30
2023-05-10T12:45:51.545Z,7.50
2023-05-10T12:46:51.483Z,7.10
2023-05-10T12:47:51.540Z,6.80
2023-05-10T12:48:57.557Z,6.10
2023-05-10T12:49:51.454Z,5.30
2023-05-10T12:50:51.445Z,5.40
2023-05-10T12:51:51.436Z,5.00
2023-05-10T12:52:51.462Z,5.20
2023-05-10T12:53:51.426Z,5.30
2023-05-10T12:54:51.402Z,5.30
2023-05-10T12:55:51.418Z,5.10
2023-05-10T12:56:51.381Z,5.20
2023-05-10T12:57:51.389Z,5.30
2023-05-10T12:58:51.427Z,5.80
2023-05-10T12:59:51.346Z,5.40
2023-05-10T13:00:51.361Z,4.60
2023-05-10T13:01:51.372Z,4.30
2023-05-10T13:02:51.439Z,4.10
2023-05-10T13:03:51.320Z,4.70
2023-05-10T13:04:51.383Z,5.10
2023-05-10T13:05:51.279Z,5.10
2023-05-10T13:06:51.330Z,5.80
2023-05-10T13:07:51.260Z,5.70
2023-05-10T13:08:51.264Z,5.60
2023-05-10T13:09:51.235Z,6.20
2023-05-10T13:10:51.236Z,7.50
2023-05-10T13:11:51.237Z,7.50
2023-05-10T13:12:51.229Z,7.80
2023-05-10T13:13:51.217Z,7.40
2023-05-10T13:14:51.192Z,7.70
2023-05-10T13:15:51.238Z,9.10
2023-05-10T13:16:51.242Z,9.40
2023-05-10T13:17:51.182Z,8.30
2023-05-10T13:18:51.216Z,9.00
2023-05-10T13:19:51.152Z,9.30
2023-05-10T13:20:51.707Z,8.80
2023-05-10T13:21:51.202Z,10.30
2023-05-10T13:22:52.262Z,11.80
2023-05-10T13:23:52.440Z,10.00
2023-05-10T13:24:51.095Z,10.30
2023-05-10T13:25:51.704Z,10.50
2023-05-10T13:26:51.885Z,10.40
2023-05-10T13:27:51.061Z,10.50
2023-05-10T13:28:51.047Z,9.90
2023-05-10T13:29:51.059Z,9.90
2023-05-10T13:30:51.050Z,9.80
2023-05-10T13:31:51.147Z,9.70
2023-05-10T13:32:51.034Z,9.10
2023-05-10T13:33:51.889Z,8.50
2023-05-10T13:34:51.003Z,7.70
2023-05-10T13:35:50.973Z,7.90
2023-05-10T13:36:50.977Z,7.90
2023-05-10T13:37:50.952Z,7.90
2023-05-10T13:38:50.963Z,7.70
2023-05-10T13:39:51.027Z,8.20
2023-05-10T13:40:51.083Z,7.50
2023-05-10T13:41:50.920Z,7.50
2023-05-10T13:42:50.899Z,7.10
2023-05-10T13:43:50.943Z,7.50
2023-05-10T13:44:50.917Z,7.20
2023-05-10T13:45:50.897Z,6.90
2023-05-10T13:46:51.010Z,6.80
2023-05-10T13:47:50.883Z,7.00
2023-05-10T13:48:51.013Z,6.70
2023-05-10T13:49:50.841Z,6.90
2023-05-10T13:50:50.817Z,6.50
2023-05-10T13:51:50.854Z,6.80
2023-05-10T13:52:50.818Z,6.70
2023-05-10T13:53:50.850Z,6.30
2023-05-10T13:54:50.822Z,6.00
2023-05-10T13:55:50.784Z,6.30
2023-05-10T13:56:50.760Z,6.80
2023-05-10T13:57:51.479Z,6.50
2023-05-10T13:58:51.680Z,6.40
2023-05-10T13:59:50.725Z,6.00
2023-05-10T14:00:51.065Z,6.50
2023-05-10T14:01:50.766Z,6.10
2023-05-10T14:02:50.771Z,6.30
2023-05-10T14:03:50.744Z,6.10
2023-05-10T14:04:50.672Z,5.80
2023-05-10T14:05:52.020Z,6.10
2023-05-10T14:06:50.688Z,5.70
2023-05-10T14:07:50.689Z,5.30
2023-05-10T14:08:50.650Z,4.90
2023-05-10T14:09:50.707Z,5.20
2023-05-10T14:10:50.745Z,4.40
2023-05-10T14:11:50.778Z,4.50
2023-05-10T14:12:50.635Z,4.00
2023-05-10T14:13:50.592Z,4.20
2023-05-10T14:14:50.586Z,5.20
2023-05-10T14:15:50.587Z,4.30
2023-05-10T14:16:50.908Z,3.50
2023-05-10T14:17:50.627Z,3.60
2023-05-10T14:18:50.644Z,3.50
2023-05-10T14:19:50.519Z,3.70
2023-05-10T14:20:50.518Z,4.10
2023-05-10T14:21:50.543Z,4.10
2023-05-10T14:22:50.488Z,4.60
2023-05-10T14:23:50.535Z,4.80
2023-05-10T14:24:50.499Z,4.50
2023-05-10T14:25:50.566Z,4.40
2023-05-10T14:26:50.467Z,4.70
2023-05-10T14:27:50.445Z,4.80
2023-05-10T14:28:50.502Z,7.10
2023-05-10T14:29:51.302Z,8.10
2023-05-10T14:30:50.432Z,7.90
2023-05-10T14:31:50.491Z,8.10
2023-05-10T14:32:50.443Z,7.70
2023-05-10T14:33:50.429Z,7.80
2023-05-10T14:34:50.373Z,7.80
2023-05-10T14:35:50.424Z,7.80
2023-05-10T14:36:50.357Z,7.50
2023-05-10T14:37:50.385Z,6.40
2023-05-10T14:38:50.392Z,5.00
2023-05-10T14:39:50.339Z,4.40
2023-05-10T14:40:50.375Z,4.00
2023-05-10T14:41:50.304Z,3.30
2023-05-10T14:42:50.280Z,3.50
2023-05-10T14:43:50.289Z,3.00
2023-05-10T14:44:50.307Z,2.80
2023-05-10T14:45:50.320Z,2.80
2023-05-10T14:46:50.233Z,2.40
2023-05-10T14:47:50.233Z,2.40
2023-05-10T14:48:50.236Z,2.20
2023-05-10T14:49:50.255Z,2.50
2023-05-10T14:50:50.225Z,2.50
2023-05-10T14:51:50.206Z,2.50
2023-05-10T14:52:50.177Z,2.30
2023-05-10T14:53:50.197Z,2.60
2023-05-10T14:54:50.188Z,2.40
2023-05-10T14:55:50.150Z,2.20
2023-05-10T14:56:50.122Z,2.40
2023-05-10T14:57:50.151Z,2.40
2023-05-10T14:58:50.287Z,2.40
2023-05-10T14:59:50.114Z,2.20
2023-05-10T15:00:50.098Z,2.40
2023-05-10T15:01:50.158Z,2.30
2023-05-10T15:02:50.264Z,2.10
2023-05-10T15:03:50.141Z,2.00
2023-05-10T15:04:50.081Z,2.60
2023-05-10T15:05:50.135Z,2.60
2023-05-10T15:06:50.036Z,2.80
2023-05-10T15:07:50.059Z,2.70
2023-05-10T15:08:50.029Z,2.70
2023-05-10T15:09:49.989Z,2.50
2023-05-10T15:10:50.044Z,2.70
2023-05-10T15:11:50.018Z,2.80
2023-05-10T15:12:50.074Z,2.70
2023-05-10T15:13:50.739Z,2.70
2023-05-10T15:14:49.968Z,2.80
2023-05-10T15:15:49.962Z,2.70
2023-05-10T15:16:50.047Z,2.80
2023-05-10T15:17:50.007Z,2.90
2023-05-10T15:18:49.970Z,3.40
2023-05-10T15:19:49.966Z,3.10
2023-05-10T15:20:49.924Z,3.40
2023-05-10T15:21:49.996Z,3.20
2023-05-10T15:22:49.913Z,3.60
2023-05-10T15:23:49.879Z,3.60
2023-05-10T15:24:49.951Z,3.30
2023-05-10T15:25:50.657Z,3.30
2023-05-10T15:26:50.676Z,3.50
2023-05-10T15:27:50.084Z,3.70
2023-05-10T15:28:50.708Z,3.80
2023-05-10T15:29:50.651Z,3.50
2023-05-10T15:30:49.780Z,3.30
2023-05-10T15:31:49.867Z,3.40
2023-05-10T15:32:49.819Z,3.30
2023-05-10T15:33:49.777Z,3.30
2023-05-10T15:34:49.746Z,3.40
2023-05-10T15:35:49.770Z,3.20
2023-05-10T15:36:49.732Z,3.30
2023-05-10T15:37:49.739Z,3.60
2023-05-10T15:38:49.738Z,3.20
2023-05-10T15:39:49.754Z,3.30
2023-05-10T15:40:49.757Z,3.40
2023-05-10T15:41:49.707Z,4.00
2023-05-10T15:42:49.696Z,4.30
2023-05-10T15:43:49.683Z,4.00
2023-05-10T15:44:49.686Z,4.30
2023-05-10T15:45:49.757Z,4.20
2023-05-10T15:46:49.688Z,4.30
2023-05-10T15:47:49.651Z,4.50
2023-05-10T15:48:49.647Z,5.50
2023-05-10T15:49:49.658Z,6.00
2023-05-10T15:50:49.686Z,7.30
2023-05-10T15:51:49.588Z,7.20
2023-05-10T15:52:49.575Z,7.80
2023-05-10T15:54:05.382Z,7.40
2023-05-10T15:54:49.582Z,7.60
2023-05-10T15:55:49.567Z,7.50
2023-05-10T15:56:49.528Z,7.30
2023-05-10T15:57:49.538Z,7.20
2023-05-10T15:58:49.537Z,6.80
2023-05-10T15:59:49.529Z,6.30
2023-05-10T16:00:49.556Z,6.60
2023-05-10T16:01:49.526Z,7.00
2023-05-10T16:02:49.747Z,6.70
2023-05-10T16:03:49.491Z,6.80
2023-05-10T16:04:49.437Z,6.30
2023-05-10T16:05:49.445Z,6.60
2023-05-10T16:06:49.428Z,6.60
2023-05-10T16:07:49.428Z,6.30
2023-05-10T16:08:49.441Z,6.20
2023-05-10T16:09:49.440Z,6.00
2023-05-10T16:10:49.379Z,6.50
2023-05-10T16:11:49.366Z,6.20
2023-05-10T16:12:49.429Z,6.20
2023-05-10T16:13:49.368Z,6.00
2023-05-10T16:14:49.350Z,5.90
2023-05-10T16:15:49.347Z,6.70
2023-05-10T16:16:49.419Z,6.40
2023-05-10T16:17:49.534Z,6.50
2023-05-10T16:18:49.387Z,6.60
2023-05-10T16:19:49.287Z,5.90
2023-05-10T16:20:49.295Z,6.30
2023-05-10T16:21:49.273Z,6.90
2023-05-10T16:22:49.352Z,6.60
2023-05-10T16:23:49.259Z,6.70
2023-05-10T16:24:49.286Z,6.80
2023-05-10T16:25:49.247Z,7.00
2023-05-10T16:26:49.249Z,7.40
2023-05-10T16:27:49.248Z,7.40
2023-05-10T16:28:49.207Z,6.80
2023-05-10T16:29:49.184Z,7.40
2023-05-10T16:30:49.242Z,7.90
2023-05-10T16:31:49.232Z,8.00
2023-05-10T16:32:49.170Z,8.40
2023-05-10T16:33:49.197Z,8.50
2023-05-10T16:34:49.125Z,8.20
2023-05-10T16:35:49.144Z,7.70
2023-05-10T16:36:49.110Z,8.20
2023-05-10T16:37:49.123Z,8.20
2023-05-10T16:38:49.152Z,8.40
2023-05-10T16:39:49.299Z,8.30
2023-05-10T16:40:49.101Z,7.80
2023-05-10T16:41:49.093Z,8.20
2023-05-10T16:42:49.042Z,7.60
2023-05-10T16:43:49.066Z,8.40
2023-05-10T16:44:49.073Z,8.30
2023-05-10T16:45:49.069Z,7.70
2023-05-10T16:46:49.089Z,8.50
2023-05-10T16:47:49.054Z,8.30
2023-05-10T16:48:48.994Z,8.60
2023-05-10T16:49:48.988Z,8.90
2023-05-10T16:50:48.996Z,8.00
2023-05-10T16:51:48.980Z,8.40
2023-05-10T16:52:48.972Z,8.40
2023-05-10T16:53:48.958Z,8.30
2023-05-10T16:54:48.955Z,8.50
2023-05-10T16:55:48.957Z,8.80
2023-05-10T16:56:48.940Z,8.70
2023-05-10T16:57:48.916Z,9.10
2023-05-10T16:58:48.901Z,8.30
2023-05-10T16:59:50.566Z,8.80
2023-05-10T17:00:51.328Z,9.70
2023-05-10T17:01:50.849Z,10.10
2023-05-10T17:02:48.931Z,11.30
2023-05-10T17:03:48.977Z,10.50
2023-05-10T17:04:48.841Z,10.10
2023-05-10T17:05:48.838Z,12.00
2023-05-10T17:06:48.802Z,12.40
2023-05-10T17:07:48.814Z,12.50
2023-05-10T17:08:48.812Z,11.60
2023-05-10T17:09:48.779Z,12.30
2023-05-10T17:10:48.776Z,11.20
2023-05-10T17:11:48.786Z,11.60
2023-05-10T17:12:48.733Z,10.90
2023-05-10T17:13:48.763Z,11.90
2023-05-10T17:14:48.728Z,12.70
2023-05-10T17:15:48.798Z,13.40
2023-05-10T17:16:48.748Z,13.20
2023-05-10T17:17:48.743Z,13.10
2023-05-10T17:18:48.712Z,13.50
2023-05-10T17:19:48.678Z,14.10
2023-05-10T17:20:48.689Z,15.40
2023-05-10T17:21:48.711Z,13.90
2023-05-10T17:22:48.653Z,13.10
2023-05-10T17:23:48.692Z,13.40
2023-05-10T17:24:48.657Z,13.60
2023-05-10T17:25:48.600Z,13.80
2023-05-10T17:26:48.607Z,13.40
2023-05-10T17:27:48.612Z,15.10
2023-05-10T17:28:48.612Z,16.00
2023-05-10T17:29:48.577Z,15.00
2023-05-10T17:30:48.548Z,15.70
2023-05-10T17:31:48.588Z,17.50
2023-05-10T17:32:48.650Z,17.40
2023-05-10T17:33:48.559Z,16.70
2023-05-10T17:34:48.497Z,17.30
2023-05-10T17:35:48.532Z,17.00
2023-05-10T17:36:48.530Z,17.90
2023-05-10T17:37:48.523Z,17.40
2023-05-10T17:38:48.551Z,17.90
2023-05-10T17:39:48.454Z,19.90
2023-05-10T17:40:48.459Z,18.90
2023-05-10T17:41:48.502Z,19.90
2023-05-10T17:42:48.444Z,18.70
2023-05-10T17:43:48.456Z,20.00
2023-05-10T17:44:48.409Z,19.90
2023-05-10T17:45:48.472Z,21.30
2023-05-10T17:46:48.406Z,20.40
2023-05-10T17:47:48.523Z,21.70
2023-05-10T17:48:48.447Z,22.30
2023-05-10T17:49:48.359Z,23.00
2023-05-10T17:50:48.591Z,21.30
2023-05-10T17:51:48.492Z,21.60
2023-05-10T17:52:48.374Z,23.30
2023-05-10T17:53:48.342Z,23.60
2023-05-10T17:54:48.304Z,22.30
2023-05-10T17:55:48.574Z,23.30
2023-05-10T17:56:49.014Z,22.50
2023-05-10T17:57:51.814Z,23.30
2023-05-10T17:58:48.423Z,22.30
2023-05-10T17:59:48.539Z,24.20
2023-05-10T18:00:48.344Z,24.10
2023-05-10T18:01:48.334Z,21.30
2023-05-10T18:02:48.280Z,21.70
2023-05-10T18:03:48.214Z,21.90
2023-05-10T18:04:48.357Z,22.50
2023-05-10T18:05:48.256Z,22.10
2023-05-10T18:06:48.180Z,22.70
2023-05-10T18:07:48.931Z,20.40